This is the latest recevied weather packets stored in our database for station/object VU3KEB-1. If no packets are shown the sender has not sent any weather packets the latest 10 day(s).
| Time | Temp. | Humidity | Pressure | Rain* | Wind** | Luminosity | Snow |
|---|---|---|---|---|---|---|---|
| 1788164234 | 30° C | 50% | 1031.3 hPa | - | - | - | - |
| 1788163019 | 30° C | 49% | 1032.2 hPa | - | - | - | - |
| 1788161801 | 30° C | 49% | 1032.2 hPa | - | - | - | - |
| 1788160586 | 30° C | 49% | 1032.2 hPa | - | - | - | - |
| 1788159373 | 29.44° C | 50% | 1033.4 hPa | - | - | - | - |
| 1788158156 | 29.44° C | 50% | 1033.8 hPa | - | - | - | - |
| 1788156940 | 28.89° C | 50% | 1033.8 hPa | - | - | - | - |
| 1788155724 | 28.33° C | 53% | 1034.7 hPa | - | - | - | - |
| 1788154506 | 28.33° C | 53% | 1034.7 hPa | - | - | - | - |
| 1788153291 | 27.78° C | 57% | 1035 hPa | - | - | - | - |
| 1788152073 | 27.22° C | 57% | 1035 hPa | - | - | - | - |
| 1788150859 | 26.67° C | 57% | 1035 hPa | - | - | - | - |
| 1788149634 | 25.56° C | 67% | 1035.1 hPa | - | - | - | - |
| 1788010317 | 25.56° C | 63% | 1032.9 hPa | - | - | - | - |
| 1788009101 | 25.56° C | 69% | 1031.8 hPa | - | - | - | - |
| 1788007884 | 25.56° C | 69% | 1031.8 hPa | - | - | - | - |
| 1788006670 | 25° C | 69% | 1031.8 hPa | - | - | - | - |
| 1788005455 | 27.78° C | 58% | 1031.2 hPa | - | - | - | - |
| 1788004242 | 27.22° C | 58% | 1031.2 hPa | - | - | - | - |
| 1788003026 | 27.22° C | 58% | 1031.2 hPa | - | - | - | - |
| 1788001812 | 26.67° C | 68% | 1031.1 hPa | - | - | - | - |
| 1788000598 | 27.22° C | 68% | 1031.1 hPa | - | - | - | - |
| 1787999383 | 29.44° C | 68% | 1031.1 hPa | - | - | - | - |
| 1787998169 | 30° C | 50% | 1031 hPa | - | - | - | - |
| 1787996955 | 30.56° C | 50% | 1031 hPa | - | - | - | - |
* Rain since midnight (hover to see other rain measurements)
** Current wind speed in m/s (hover to see current wind gust speed)